Time;durP1;ratioP1;P1;durP2;ratioP2;P2;SDS_P1;SDS_P2;PMS_P1;PMS_P2;Temp;Humidity;BMP_temperature;BMP_pressure;BME280_temperature;BME280_humidity;BME280_pressure;Samples;Min_cycle;Max_cycle;Signal;HPM_P1;HPM_P2
2021/09/20 00:01:38;;;;;;;13.02;11.50;;;22.20;71.60;;;;;;4994544;28;20035;-73
2021/09/20 00:04:05;;;;;;;15.85;13.43;;;22.40;70.70;;;;;;4995644;28;20018;-73
2021/09/20 00:06:33;;;;;;;17.98;15.20;;;22.40;70.30;;;;;;4995770;28;20022;-74
2021/09/20 00:09:00;;;;;;;14.70;13.20;;;22.50;70.10;;;;;;4994110;28;20061;-74
2021/09/20 00:11:27;;;;;;;13.85;12.45;;;22.50;71.70;;;;;;4994377;28;20030;-73
2021/09/20 00:13:55;;;;;;;12.75;11.13;;;22.60;70.60;;;;;;4994374;28;20365;-74
2021/09/20 00:16:22;;;;;;;13.23;11.18;;;22.80;70.10;;;;;;4995486;28;20029;-73
2021/09/20 00:18:50;;;;;;;13.35;10.82;;;23.00;69.30;;;;;;4995449;28;20026;-73
2021/09/20 00:21:17;;;;;;;12.02;10.07;;;23.10;70.50;;;;;;4995586;28;20097;-73
2021/09/20 00:23:45;;;;;;;12.32;10.85;;;23.10;70.10;;;;;;4995397;28;20024;-73
2021/09/20 00:26:12;;;;;;;13.18;11.63;;;23.20;70.50;;;;;;4995328;28;20077;-73
2021/09/20 00:28:39;;;;;;;11.52;10.32;;;23.40;68.70;;;;;;4994085;28;20031;-73
2021/09/20 00:31:07;;;;;;;11.73;10.35;;;23.30;67.80;;;;;;4995353;28;20034;-74
2021/09/20 00:33:34;;;;;;;14.00;12.25;;;23.30;68.80;;;;;;4994088;28;20034;-74
2021/09/20 00:36:02;;;;;;;13.70;12.27;;;23.40;67.90;;;;;;4995272;28;20451;-73
2021/09/20 00:38:29;;;;;;;13.90;12.50;;;23.40;68.50;;;;;;4995008;28;20414;-72
2021/09/20 00:40:57;;;;;;;14.70;13.13;;;23.40;67.90;;;;;;4993853;28;20034;-72
2021/09/20 00:43:24;;;;;;;16.33;12.60;;;23.40;66.00;;;;;;4995120;28;20018;-71
2021/09/20 00:45:52;;;;;;;15.80;12.18;;;23.50;67.20;;;;;;4993565;28;20026;-73
2021/09/20 00:48:19;;;;;;;12.27;10.93;;;23.70;66.30;;;;;;4994972;28;20030;-72
2021/09/20 00:50:47;;;;;;;12.82;11.55;;;23.90;68.00;;;;;;4994863;28;20101;-72
2021/09/20 00:53:14;;;;;;;12.88;10.57;;;24.00;66.50;;;;;;4994777;28;20332;-72
2021/09/20 00:55:44;;;;;;;14.27;11.13;;;24.00;65.70;;;;;;4993465;28;20033;-72
2021/09/20 00:58:13;;;;;;;13.90;12.43;;;24.00;66.40;;;;;;4994753;28;20538;-71
2021/09/20 01:00:41;;;;;;;8.77;7.88;;;24.20;66.90;;;;;;4994619;28;20495;-72
2021/09/20 01:03:08;;;;;;;7.28;6.10;;;24.30;65.00;;;;;;4994670;28;20026;-73
2021/09/20 01:05:36;;;;;;;4.80;4.25;;;24.30;62.00;;;;;;4993212;28;20019;-72
2021/09/20 01:08:03;;;;;;;6.68;4.70;;;24.20;62.00;;;;;;4993280;28;20034;-72
2021/09/20 01:10:31;;;;;;;6.93;4.35;;;24.40;62.20;;;;;;4994270;28;20050;-72
2021/09/20 01:12:58;;;;;;;3.53;3.22;;;24.50;60.40;;;;;;4994407;28;20042;-72
2021/09/20 01:15:26;;;;;;;3.95;3.08;;;24.70;61.20;;;;;;4994345;28;20018;-73
2021/09/20 01:17:53;;;;;;;3.53;2.92;;;24.80;61.50;;;;;;4993058;28;20145;-72
2021/09/20 01:20:22;;;;;;;4.25;2.88;;;24.50;59.70;;;;;;4992438;28;20030;-72
2021/09/20 01:23:02;;;;;;;4.53;2.80;;;24.50;60.40;;;;;;4994393;28;20478;-74
2021/09/20 01:25:33;;;;;;;5.57;2.40;;;24.80;61.40;;;;;;4994260;28;20145;-73
2021/09/20 01:28:00;;;;;;;3.45;2.88;;;24.80;60.90;;;;;;4993068;28;20033;-73
2021/09/20 01:30:28;;;;;;;2.78;2.58;;;24.80;61.30;;;;;;4994143;28;20490;-73
2021/09/20 01:32:55;;;;;;;3.38;2.40;;;24.80;60.80;;;;;;4992828;28;20061;-75
2021/09/20 01:35:24;;;;;;;3.13;2.90;;;25.00;58.80;;;;;;4992697;28;20070;-75
2021/09/20 01:37:52;;;;;;;4.90;3.35;;;25.00;58.10;;;;;;4992657;28;20026;-76
2021/09/20 01:40:20;;;;;;;3.72;2.90;;;25.10;58.90;;;;;;4992984;28;20048;-74
2021/09/20 01:42:47;;;;;;;3.13;2.78;;;25.10;58.70;;;;;;4993929;28;20389;-75
2021/09/20 01:45:16;;;;;;;4.95;2.90;;;25.00;58.30;;;;;;4992635;28;20131;-75
2021/09/20 01:47:44;;;;;;;3.45;2.67;;;25.30;60.10;;;;;;4992588;28;20080;-75
2021/09/20 01:50:14;;;;;;;4.28;2.80;;;25.40;58.80;;;;;;4993963;28;20030;-75
2021/09/20 01:52:42;;;;;;;4.18;2.72;;;25.70;60.00;;;;;;4992588;28;20409;-75
2021/09/20 01:55:10;;;;;;;4.90;2.50;;;25.80;58.60;;;;;;4992431;28;20022;-75
2021/09/20 01:57:38;;;;;;;3.25;2.50;;;25.90;60.10;;;;;;4992454;28;20022;-75
2021/09/20 02:00:07;;;;;;;3.17;2.00;;;25.70;57.50;;;;;;4992363;28;20035;-75
2021/09/20 02:02:35;;;;;;;5.13;2.27;;;25.60;58.90;;;;;;4992416;28;20030;-75
2021/09/20 02:05:03;;;;;;;4.13;2.42;;;25.90;58.70;;;;;;4993655;28;20268;-75
2021/09/20 02:07:30;;;;;;;4.18;2.42;;;25.90;57.70;;;;;;4993554;28;20076;-75
2021/09/20 02:09:57;;;;;;;4.43;2.22;;;26.10;58.40;;;;;;4993324;28;20050;-74
2021/09/20 02:12:25;;;;;;;2.42;2.03;;;25.90;54.00;;;;;;4993664;28;20030;-75
2021/09/20 02:14:52;;;;;;;4.80;2.20;;;26.20;56.60;;;;;;4992251;28;20026;-75
2021/09/20 02:17:20;;;;;;;5.22;2.35;;;26.40;56.30;;;;;;4992175;28;20120;-76
2021/09/20 02:19:47;;;;;;;3.88;2.35;;;26.40;55.20;;;;;;4993395;28;20038;-76
2021/09/20 02:22:14;;;;;;;2.58;2.10;;;26.50;52.50;;;;;;4992191;28;20037;-76
2021/09/20 02:24:43;;;;;;;4.70;2.30;;;26.30;51.60;;;;;;4993544;28;20026;-75
2021/09/20 02:27:10;;;;;;;3.90;2.60;;;26.20;51.20;;;;;;4992097;28;20109;-75
2021/09/20 02:29:38;;;;;;;2.92;2.63;;;26.50;52.90;;;;;;4993574;28;20089;-76
2021/09/20 02:32:06;;;;;;;2.90;2.67;;;26.60;51.20;;;;;;4994880;28;20491;-73
2021/09/20 02:34:33;;;;;;;5.97;2.80;;;26.50;50.70;;;;;;4996037;28;20042;-76
2021/09/20 02:37:01;;;;;;;4.95;2.60;;;26.50;51.50;;;;;;4996092;28;20089;-76
2021/09/20 02:39:29;;;;;;;3.60;2.10;;;26.50;50.90;;;;;;4995875;28;20052;-77
2021/09/20 02:41:56;;;;;;;2.53;2.33;;;26.50;50.00;;;;;;4997293;28;20029;-76
2021/09/20 02:44:24;;;;;;;4.00;2.35;;;26.30;51.00;;;;;;4995937;28;20077;-76
2021/09/20 02:46:51;;;;;;;3.75;2.50;;;26.70;52.10;;;;;;4995808;28;20029;-77
2021/09/20 02:49:18;;;;;;;3.80;2.00;;;26.40;50.10;;;;;;4995868;28;20034;-76
2021/09/20 02:51:46;;;;;;;4.13;2.17;;;26.40;51.00;;;;;;4995771;28;20461;-76
2021/09/20 02:54:13;;;;;;;3.67;2.30;;;26.60;49.50;;;;;;4996029;28;20037;-76
2021/09/20 02:56:42;;;;;;;2.75;2.30;;;26.50;49.60;;;;;;4995750;28;20479;-76
2021/09/20 02:59:10;;;;;;;3.42;2.58;;;26.40;49.40;;;;;;4995770;28;20058;-76
2021/09/20 03:01:38;;;;;;;4.25;2.25;;;26.60;50.90;;;;;;4995692;28;20026;-76
2021/09/20 03:04:05;;;;;;;4.38;2.13;;;26.80;49.90;;;;;;4996934;28;20022;-76
2021/09/20 03:06:33;;;;;;;2.83;2.00;;;26.70;49.80;;;;;;4996859;28;20031;-77
2021/09/20 03:09:00;;;;;;;3.00;2.00;;;27.00;49.50;;;;;;4996717;28;20129;-76
2021/09/20 03:11:27;;;;;;;3.63;2.20;;;27.10;48.70;;;;;;4996833;28;20034;-76
2021/09/20 03:13:55;;;;;;;5.55;2.50;;;27.20;48.70;;;;;;4995417;28;20057;-75
2021/09/20 03:16:22;;;;;;;3.03;2.03;;;27.00;49.40;;;;;;4996834;28;20022;-77
2021/09/20 03:18:49;;;;;;;2.30;2.10;;;27.00;48.70;;;;;;4995319;28;20027;-76
2021/09/20 03:21:19;;;;;;;5.53;2.40;;;26.80;49.10;;;;;;4995457;28;20100;-76
2021/09/20 03:23:47;;;;;;;4.68;2.22;;;26.90;48.80;;;;;;4996699;28;20026;-75
2021/09/20 03:26:15;;;;;;;3.83;2.58;;;27.00;48.40;;;;;;4995578;28;20030;-76
2021/09/20 03:28:42;;;;;;;4.72;2.33;;;26.80;48.10;;;;;;4995291;28;20359;-78
2021/09/20 03:31:10;;;;;;;3.67;2.58;;;26.70;48.10;;;;;;4995271;28;20030;-77
2021/09/20 03:33:37;;;;;;;4.25;3.10;;;26.90;48.00;;;;;;4995422;28;20483;-76
2021/09/20 03:36:05;;;;;;;3.10;2.75;;;26.90;48.70;;;;;;4979097;28;20031;-76
2021/09/20 03:38:32;;;;;;;5.43;2.70;;;26.90;48.90;;;;;;4995507;28;20032;-76
2021/09/20 03:41:00;;;;;;;2.92;2.70;;;27.10;47.40;;;;;;4995208;28;20085;-75
2021/09/20 03:43:27;;;;;;;3.95;3.00;;;26.90;47.70;;;;;;4994849;28;20030;-77
2021/09/20 03:45:54;;;;;;;3.70;2.58;;;27.00;47.20;;;;;;4994914;28;20050;-74
2021/09/20 03:48:22;;;;;;;4.97;2.80;;;26.80;46.80;;;;;;4996323;28;20022;-75
2021/09/20 03:50:49;;;;;;;5.40;2.40;;;26.60;46.50;;;;;;4995026;28;20026;-74
2021/09/20 03:53:16;;;;;;;2.50;2.17;;;26.50;46.70;;;;;;4996398;28;20027;-74
2021/09/20 03:55:44;;;;;;;3.20;2.33;;;26.60;47.50;;;;;;4995326;28;20400;-74
2021/09/20 03:58:11;;;;;;;2.45;2.25;;;26.50;47.10;;;;;;4995012;28;20033;-74
2021/09/20 04:00:39;;;;;;;6.60;2.30;;;26.80;47.50;;;;;;4996473;28;20033;-75
2021/09/20 04:03:07;;;;;;;5.68;2.20;;;26.80;46.40;;;;;;4994788;28;20022;-75
2021/09/20 04:05:34;;;;;;;2.83;2.30;;;27.10;47.60;;;;;;4995928;28;20022;-75
2021/09/20 04:08:02;;;;;;;3.13;2.00;;;26.60;46.00;;;;;;4994798;28;20033;-74
2021/09/20 04:10:29;;;;;;;4.13;2.50;;;26.80;46.40;;;;;;4994845;28;20417;-76
2021/09/20 04:12:56;;;;;;;4.72;2.50;;;26.80;46.80;;;;;;4995718;28;20539;-73
2021/09/20 04:15:24;;;;;;;4.78;2.42;;;26.70;46.80;;;;;;4994367;28;20390;-73
2021/09/20 04:17:51;;;;;;;3.53;2.60;;;26.80;46.20;;;;;;4995416;28;20383;-74
2021/09/20 04:20:18;;;;;;;3.92;2.40;;;26.60;45.60;;;;;;4997314;28;20028;-74
2021/09/20 04:22:46;;;;;;;4.20;2.80;;;26.70;45.90;;;;;;4994546;28;20033;-74
2021/09/20 04:25:13;;;;;;;2.83;2.50;;;26.70;46.20;;;;;;4995611;28;20027;-73
2021/09/20 04:27:41;;;;;;;2.50;2.20;;;26.60;45.90;;;;;;4995415;28;20023;-74
2021/09/20 04:30:09;;;;;;;2.88;2.67;;;26.70;46.00;;;;;;4995911;28;20029;-74
2021/09/20 04:32:37;;;;;;;5.15;2.60;;;26.60;45.90;;;;;;4995443;28;20498;-73
2021/09/20 04:35:05;;;;;;;4.30;2.08;;;27.00;48.20;;;;;;4994144;28;20036;-73
2021/09/20 04:37:32;;;;;;;2.88;2.00;;;27.20;46.30;;;;;;4993873;28;20023;-74
2021/09/20 04:40:00;;;;;;;3.42;1.85;;;27.20;45.30;;;;;;4993748;28;20412;-72
2021/09/20 04:42:27;;;;;;;2.42;1.90;;;26.90;44.80;;;;;;4993743;28;20058;-73
2021/09/20 04:44:54;;;;;;;5.78;2.35;;;26.90;45.10;;;;;;4995003;28;20022;-74
2021/09/20 04:47:22;;;;;;;3.05;1.92;;;26.60;44.70;;;;;;4994941;28;20442;-73
2021/09/20 04:49:49;;;;;;;2.60;2.20;;;26.70;45.90;;;;;;4994951;28;20032;-73
2021/09/20 04:52:16;;;;;;;4.43;2.15;;;26.70;44.80;;;;;;4994949;28;20394;-72
2021/09/20 04:54:44;;;;;;;3.25;2.00;;;26.60;44.90;;;;;;4992931;28;20029;-73
2021/09/20 04:57:11;;;;;;;2.95;1.90;;;26.70;45.40;;;;;;4994750;28;20022;-73
2021/09/20 04:59:38;;;;;;;3.08;2.10;;;26.70;45.50;;;;;;4994718;28;20364;-73
2021/09/20 05:02:09;;;;;;;3.53;2.35;;;26.70;45.50;;;;;;4994601;28;20105;-74
2021/09/20 05:04:36;;;;;;;2.65;2.33;;;26.60;46.00;;;;;;4994658;28;20018;-73
2021/09/20 05:07:03;;;;;;;3.92;2.30;;;26.60;46.70;;;;;;4994579;28;20019;-73
2021/09/20 05:09:31;;;;;;;2.95;2.50;;;26.60;46.20;;;;;;4993013;28;20078;-73
2021/09/20 05:11:58;;;;;;;3.55;2.33;;;26.50;46.80;;;;;;4993156;28;20027;-72
2021/09/20 05:14:26;;;;;;;5.68;2.63;;;26.40;47.10;;;;;;4994487;28;20490;-74
2021/09/20 05:17:04;;;;;;;2.45;2.25;;;26.50;47.40;;;;;;5090738;27;20401;-75
2021/09/20 05:19:31;;;;;;;2.80;2.60;;;26.50;47.50;;;;;;5090585;28;20052;-73
2021/09/20 05:21:59;;;;;;;3.63;2.70;;;26.20;47.70;;;;;;5089131;28;20035;-74
2021/09/20 05:24:26;;;;;;;3.10;2.80;;;26.00;47.40;;;;;;5088875;28;20024;-73
2021/09/20 05:26:54;;;;;;;2.85;2.47;;;25.90;47.60;;;;;;5089070;28;20028;-74
2021/09/20 05:29:21;;;;;;;3.65;2.50;;;26.00;48.20;;;;;;5090935;28;20074;-74
2021/09/20 05:31:49;;;;;;;5.00;2.40;;;26.00;48.00;;;;;;5072011;28;20032;-73
2021/09/20 05:34:18;;;;;;;4.28;2.85;;;25.80;48.50;;;;;;5088835;28;20055;-74
2021/09/20 05:36:46;;;;;;;3.30;2.40;;;25.80;48.60;;;;;;5088947;28;20024;-74
2021/09/20 05:39:13;;;;;;;2.60;2.40;;;25.60;48.20;;;;;;5088864;28;20085;-75
2021/09/20 05:41:41;;;;;;;3.15;2.63;;;25.50;48.40;;;;;;5088609;28;20115;-74
2021/09/20 05:44:08;;;;;;;3.92;2.58;;;25.50;49.00;;;;;;5089991;28;20052;-73
2021/09/20 05:46:35;;;;;;;3.53;2.97;;;25.40;48.70;;;;;;5088553;28;20051;-73
2021/09/20 05:49:03;;;;;;;3.53;2.75;;;25.40;49.30;;;;;;5088503;28;20028;-75
2021/09/20 05:51:30;;;;;;;3.08;2.88;;;25.30;49.10;;;;;;5089125;28;20020;-72
2021/09/20 05:53:57;;;;;;;3.33;2.83;;;25.40;49.40;;;;;;5089865;28;20420;-75
2021/09/20 05:56:25;;;;;;;3.08;2.78;;;25.30;49.30;;;;;;5088426;28;20052;-73
2021/09/20 05:58:52;;;;;;;2.90;2.70;;;25.40;49.00;;;;;;5088581;28;20024;-73
2021/09/20 06:01:19;;;;;;;3.85;3.30;;;25.40;49.10;;;;;;5088986;28;20028;-74
2021/09/20 06:03:47;;;;;;;3.97;2.95;;;25.30;49.40;;;;;;5089918;28;20050;-75
2021/09/20 06:06:14;;;;;;;5.07;3.45;;;25.30;48.80;;;;;;5090129;28;20022;-74
2021/09/20 06:08:42;;;;;;;4.72;3.13;;;25.20;48.60;;;;;;5089587;28;20111;-75
2021/09/20 06:11:11;;;;;;;4.65;3.08;;;25.20;49.00;;;;;;5089664;28;20032;-73
2021/09/20 06:13:39;;;;;;;3.40;2.90;;;25.10;48.60;;;;;;5087846;28;20114;-73
2021/09/20 06:16:06;;;;;;;2.97;2.60;;;25.10;49.20;;;;;;5087859;28;20050;-74
2021/09/20 06:18:34;;;;;;;4.68;4.25;;;25.00;48.60;;;;;;5088511;28;20025;-75
2021/09/20 06:21:03;;;;;;;3.22;2.92;;;25.00;47.90;;;;;;5089758;28;20078;-76
2021/09/20 06:23:30;;;;;;;3.70;3.10;;;24.90;47.50;;;;;;5090867;28;20024;-74
2021/09/20 06:25:58;;;;;;;3.78;3.42;;;24.70;48.00;;;;;;5089169;28;20020;-73
2021/09/20 06:28:25;;;;;;;5.90;3.30;;;24.70;48.40;;;;;;5075554;28;20173;-73
2021/09/20 06:30:53;;;;;;;6.13;3.13;;;24.70;48.20;;;;;;5074374;28;20537;-73
2021/09/20 06:33:20;;;;;;;3.67;3.38;;;24.70;48.30;;;;;;5075524;28;20027;-73
2021/09/20 06:35:48;;;;;;;4.15;2.83;;;24.70;48.60;;;;;;5074110;28;20028;-73
2021/09/20 06:38:16;;;;;;;3.10;2.80;;;24.70;49.40;;;;;;5075304;28;20020;-75
2021/09/20 06:40:43;;;;;;;3.55;2.78;;;24.60;48.80;;;;;;5075210;28;20016;-75
2021/09/20 06:43:11;;;;;;;6.90;3.17;;;24.50;48.30;;;;;;5073791;28;20028;-74
2021/09/20 06:45:38;;;;;;;3.90;3.50;;;24.50;49.00;;;;;;5075115;28;20397;-75
2021/09/20 06:48:06;;;;;;;6.05;2.90;;;24.50;48.80;;;;;;5075190;28;20025;-75
2021/09/20 06:50:33;;;;;;;3.83;3.53;;;24.40;48.50;;;;;;5074008;28;20115;-74
2021/09/20 06:53:01;;;;;;;5.47;4.43;;;24.30;51.00;;;;;;5073837;28;20024;-74
2021/09/20 06:55:28;;;;;;;3.30;3.10;;;24.30;51.40;;;;;;5074969;28;20034;-75
2021/09/20 06:57:59;;;;;;;5.70;3.60;;;24.20;49.00;;;;;;5073756;28;20477;-73
2021/09/20 07:00:31;;;;;;;3.53;3.10;;;24.20;49.20;;;;;;5074958;28;20028;-75
2021/09/20 07:02:58;;;;;;;3.63;2.70;;;24.00;48.80;;;;;;5075074;28;20025;-75
2021/09/20 07:05:26;;;;;;;3.67;2.70;;;23.90;49.30;;;;;;5074894;28;20032;-76
2021/09/20 07:07:53;;;;;;;3.13;2.80;;;23.80;49.60;;;;;;5074821;28;20542;-74
2021/09/20 07:10:21;;;;;;;3.47;3.17;;;23.80;49.80;;;;;;5074424;28;20511;-74
2021/09/20 07:12:49;;;;;;;3.60;3.08;;;23.70;49.80;;;;;;5074842;28;20056;-74
2021/09/20 07:15:17;;;;;;;3.38;2.90;;;23.70;50.50;;;;;;5073220;28;20075;-76
2021/09/20 07:17:44;;;;;;;3.67;2.85;;;23.60;50.30;;;;;;5074856;28;20384;-75
2021/09/20 07:20:12;;;;;;;3.70;3.33;;;23.60;50.70;;;;;;5074515;28;20131;-74
2021/09/20 07:22:43;;;;;;;4.38;3.28;;;23.50;51.40;;;;;;5073137;28;20416;-74
2021/09/20 07:25:11;;;;;;;3.40;3.10;;;23.50;50.60;;;;;;5073060;28;20021;-74
2021/09/20 07:27:39;;;;;;;3.50;3.10;;;23.40;51.00;;;;;;5073356;28;20421;-74
2021/09/20 07:30:08;;;;;;;4.15;2.83;;;23.40;51.10;;;;;;5073240;28;20025;-73
2021/09/20 07:32:35;;;;;;;4.35;2.72;;;23.30;51.70;;;;;;5072807;28;20081;-73
2021/09/20 07:35:03;;;;;;;2.90;2.70;;;23.20;51.20;;;;;;5072736;28;20119;-75
2021/09/20 07:37:30;;;;;;;9.10;3.05;;;23.10;51.70;;;;;;5072841;28;20038;-74
2021/09/20 07:39:58;;;;;;;3.78;3.00;;;23.00;51.70;;;;;;5073346;28;20088;-74
2021/09/20 07:42:25;;;;;;;2.92;2.72;;;23.00;52.00;;;;;;5072920;28;20389;-76
2021/09/20 07:44:52;;;;;;;4.60;3.00;;;22.90;52.00;;;;;;5073077;28;20090;-74
2021/09/20 07:47:20;;;;;;;4.43;2.70;;;22.80;52.40;;;;;;5074193;28;20017;-74
2021/09/20 07:49:47;;;;;;;4.75;3.20;;;22.70;52.40;;;;;;5074127;28;20099;-73
2021/09/20 07:52:14;;;;;;;2.90;2.58;;;22.60;53.00;;;;;;5074137;28;20473;-74
2021/09/20 07:54:42;;;;;;;3.88;2.70;;;22.60;52.80;;;;;;5072580;28;20111;-74
2021/09/20 07:57:10;;;;;;;2.65;2.35;;;22.60;53.30;;;;;;5073827;28;20016;-74
2021/09/20 07:59:37;;;;;;;4.18;2.42;;;22.60;53.50;;;;;;5074044;28;20100;-74
2021/09/20 08:02:04;;;;;;;3.25;2.45;;;22.50;53.60;;;;;;5073757;28;20017;-76
2021/09/20 08:04:32;;;;;;;4.85;2.50;;;22.50;54.20;;;;;;5073823;28;20067;-77
2021/09/20 08:06:59;;;;;;;3.45;2.67;;;22.50;53.80;;;;;;5072410;28;20024;-75
2021/09/20 08:09:26;;;;;;;3.65;2.90;;;22.50;54.00;;;;;;5073747;28;20366;-75
2021/09/20 08:11:54;;;;;;;4.85;2.67;;;22.50;53.70;;;;;;5072423;28;20029;-76
2021/09/20 08:14:22;;;;;;;3.90;2.60;;;22.50;53.80;;;;;;5073394;28;20028;-77
2021/09/20 08:16:49;;;;;;;4.63;2.88;;;22.50;54.00;;;;;;5073025;28;20044;-76
2021/09/20 08:19:16;;;;;;;3.58;2.15;;;22.50;54.00;;;;;;5078708;28;20021;-77
2021/09/20 08:21:44;;;;;;;3.38;2.72;;;22.40;54.20;;;;;;5074193;28;20469;-76
2021/09/20 08:24:12;;;;;;;2.85;2.30;;;22.40;54.30;;;;;;5074852;28;20028;-78
2021/09/20 08:26:39;;;;;;;3.35;2.80;;;22.40;54.30;;;;;;5077956;28;20028;-78
2021/09/20 08:29:06;;;;;;;4.32;2.58;;;22.40;54.70;;;;;;5073996;28;20025;-78
2021/09/20 08:31:34;;;;;;;4.07;2.55;;;22.40;55.20;;;;;;5074643;28;20016;-76
2021/09/20 08:34:02;;;;;;;5.93;2.47;;;21.90;61.30;;;;;;5073105;28;20560;-77
2021/09/20 08:36:29;;;;;;;7.35;2.90;;;21.30;64.10;;;;;;5073864;28;20024;-76
2021/09/20 08:38:57;;;;;;;5.90;2.67;;;20.70;66.20;;;;;;5074435;28;20024;-78
2021/09/20 08:41:24;;;;;;;6.00;2.50;;;20.40;67.70;;;;;;5073905;28;20134;-77
2021/09/20 08:43:52;;;;;;;5.53;2.90;;;20.20;68.50;;;;;;5071947;28;20025;-75
2021/09/20 08:46:20;;;;;;;2.70;2.50;;;19.90;69.20;;;;;;5074395;28;20028;-79
2021/09/20 08:48:50;;;;;;;3.85;2.47;;;19.70;70.80;;;;;;5074439;28;20032;-80
2021/09/20 08:51:18;;;;;;;;;;;19.20;71.20;;;;;;5072658;28;20024;-77
2021/09/20 08:53:47;;;;;;;4.00;2.58;;;19.00;72.00;;;;;;5074202;28;19912;-77
2021/09/20 08:56:15;;;;;;;4.93;2.83;;;18.80;72.80;;;;;;5073315;28;20021;-77
2021/09/20 08:58:42;;;;;;;4.90;2.40;;;18.70;73.30;;;;;;5073868;28;20047;-77
2021/09/20 09:01:09;;;;;;;6.10;2.47;;;18.60;73.90;;;;;;5071893;28;20025;-78
2021/09/20 09:03:37;;;;;;;6.28;2.92;;;18.40;74.60;;;;;;5071892;28;20500;-74
2021/09/20 09:06:04;;;;;;;5.07;2.97;;;18.20;76.00;;;;;;5072101;28;20031;-77
2021/09/20 09:08:40;;;;;;;2.72;2.47;;;17.80;77.10;;;;;;5072945;28;20066;-76
2021/09/20 09:11:13;;;;;;;4.15;2.40;;;17.30;78.40;;;;;;5071818;28;20084;-77
2021/09/20 09:13:48;;;;;;;2.92;2.55;;;16.80;79.80;;;;;;5073478;28;20013;-77
2021/09/20 09:16:28;;;;;;;2.60;2.38;;;16.40;81.30;;;;;;5071194;28;20055;-76
2021/09/20 09:19:12;;;;;;;2.47;2.28;;;16.10;82.40;;;;;;5072646;28;20020;-75
2021/09/20 09:21:45;;;;;;;4.10;2.10;;;15.90;82.80;;;;;;5072728;28;20188;-76
2021/09/20 09:24:15;;;;;;;2.20;2.00;;;15.90;82.60;;;;;;5072718;28;20036;-76
2021/09/20 09:27:01;;;;;;;2.10;2.00;;;15.80;82.20;;;;;;5071324;28;20032;-76
2021/09/20 09:29:34;;;;;;;1.60;1.50;;;15.60;81.70;;;;;;5071245;28;20032;-75
2021/09/20 09:32:03;;;;;;;1.60;1.50;;;15.50;80.70;;;;;;5071242;28;20033;-76
2021/09/20 09:34:33;;;;;;;1.70;1.60;;;15.40;81.30;;;;;;5071258;28;20091;-74
2021/09/20 09:37:17;;;;;;;2.90;1.50;;;15.30;81.00;;;;;;5071354;28;20032;-75
2021/09/20 09:39:44;;;;;;;2.40;1.60;;;15.20;79.70;;;;;;5072903;28;20420;-74
2021/09/20 09:42:26;;;;;;;1.55;1.50;;;15.10;80.20;;;;;;5071987;28;20039;-77
2021/09/20 09:44:55;;;;;;;1.95;1.83;;;15.10;79.50;;;;;;5077377;28;20066;-76
2021/09/20 09:47:31;;;;;;;1.83;1.73;;;15.00;78.60;;;;;;5076733;28;20370;-77
2021/09/20 09:50:20;;;;;;;1.90;1.80;;;14.80;78.40;;;;;;5074748;28;20094;-77
2021/09/20 09:52:51;;;;;;;2.17;2.08;;;14.70;78.50;;;;;;5072674;28;20017;-76
2021/09/20 09:55:19;;;;;;;2.35;2.00;;;14.70;79.30;;;;;;5072459;28;20516;-76
2021/09/20 09:57:49;;;;;;;2.00;1.90;;;14.70;79.20;;;;;;5072521;28;20025;-75
2021/09/20 10:00:18;;;;;;;2.03;1.92;;;14.50;79.00;;;;;;5071066;28;20106;-77
2021/09/20 10:03:03;;;;;;;2.28;2.10;;;14.40;79.20;;;;;;5075053;28;20082;-79
2021/09/20 10:05:30;;;;;;;2.50;2.22;;;14.40;79.80;;;;;;5075804;28;20031;-76
2021/09/20 10:07:57;;;;;;;2.33;2.17;;;14.40;79.80;;;;;;5076164;28;20358;-77
2021/09/20 10:10:30;;;;;;;2.10;2.00;;;14.40;79.60;;;;;;5074674;28;20032;-76
2021/09/20 10:13:00;;;;;;;2.50;2.30;;;14.20;80.00;;;;;;5076059;28;20064;-76
2021/09/20 10:15:29;;;;;;;2.72;2.50;;;14.20;79.70;;;;;;5075679;28;20127;-76
2021/09/20 10:17:56;;;;;;;2.63;2.20;;;14.20;79.50;;;;;;5075833;28;20016;-76
2021/09/20 10:20:28;;;;;;;2.30;2.10;;;14.10;80.20;;;;;;5074447;28;20119;-77
2021/09/20 10:22:57;;;;;;;3.17;2.30;;;14.10;79.20;;;;;;5074468;28;20066;-75
2021/09/20 10:25:28;;;;;;;2.53;2.42;;;14.10;78.80;;;;;;5075621;28;20024;-75
2021/09/20 10:27:55;;;;;;;2.35;2.13;;;14.00;78.40;;;;;;5074404;28;20028;-75
2021/09/20 10:30:30;;;;;;;2.83;2.63;;;14.00;78.30;;;;;;5075635;28;20123;-76
2021/09/20 10:33:07;;;;;;;3.13;2.28;;;13.90;78.70;;;;;;5075587;28;20025;-76
2021/09/20 10:35:53;;;;;;;2.28;2.05;;;13.90;78.20;;;;;;5074114;28;20052;-77
2021/09/20 10:38:24;;;;;;;2.90;2.20;;;13.90;77.80;;;;;;5075845;28;20027;-76
2021/09/20 10:41:17;;;;;;;2.00;1.90;;;13.90;77.50;;;;;;5071408;28;20431;-76
2021/09/20 10:43:49;;;;;;;2.55;2.35;;;13.90;77.80;;;;;;5075691;28;20024;-76
2021/09/20 10:46:34;;;;;;;;;;;13.80;77.80;;;;;;5075606;28;20032;-75
2021/09/20 10:49:04;;;;;;;2.08;1.98;;;13.80;77.80;;;;;;5073766;28;20014;-75
2021/09/20 10:51:40;;;;;;;2.78;2.55;;;13.70;78.00;;;;;;5074023;28;20024;-76
2021/09/20 10:54:15;;;;;;;2.80;2.60;;;13.70;78.30;;;;;;5075015;28;20090;-75
2021/09/20 10:56:44;;;;;;;2.83;2.60;;;13.60;78.10;;;;;;5073679;28;20059;-75
2021/09/20 10:59:13;;;;;;;3.05;2.70;;;13.70;77.80;;;;;;5073979;28;20025;-75
2021/09/20 11:01:42;;;;;;;2.70;2.50;;;13.60;78.30;;;;;;5073720;28;20024;-76
2021/09/20 11:04:20;;;;;;;2.80;2.60;;;13.60;79.00;;;;;;5073495;28;20016;-76
2021/09/20 11:07:11;;;;;;;4.18;2.83;;;13.50;80.60;;;;;;5074997;28;20358;-76
2021/09/20 11:09:41;;;;;;;;;;;13.40;85.20;;;;;;5073925;28;20025;-76
2021/09/20 11:12:12;;;;;;;5.10;2.95;;;13.30;84.00;;;;;;5073632;28;19954;-74
2021/09/20 11:15:07;;;;;;;4.38;2.90;;;13.10;84.30;;;;;;5073140;28;20142;-74
2021/09/20 11:17:37;;;;;;;5.57;3.13;;;13.00;86.00;;;;;;5069304;28;20033;-76
2021/09/20 11:20:20;;;;;;;3.95;3.10;;;12.80;86.70;;;;;;5074493;28;20041;-75
2021/09/20 11:22:48;;;;;;;3.42;2.53;;;12.80;86.70;;;;;;5073275;28;20025;-74
2021/09/20 11:25:16;;;;;;;3.28;2.53;;;12.80;86.70;;;;;;5073198;28;20115;-75
2021/09/20 11:27:49;;;;;;;2.95;2.72;;;12.80;85.80;;;;;;5074387;28;20016;-75
2021/09/20 11:30:25;;;;;;;3.63;2.60;;;12.90;86.50;;;;;;5074389;28;20020;-75
2021/09/20 11:33:01;;;;;;;5.15;2.72;;;12.80;86.30;;;;;;5074366;28;20035;-74
2021/09/20 11:35:31;;;;;;;3.75;2.80;;;13.00;88.60;;;;;;5072994;28;20036;-75
2021/09/20 11:38:02;;;;;;;3.35;2.70;;;13.00;87.30;;;;;;5074253;28;20099;-75
2021/09/20 11:40:30;;;;;;;;;;;13.00;84.30;;;;;;5074672;28;20021;-74
2021/09/20 11:43:01;;;;;;;4.88;2.67;;;13.00;85.60;;;;;;5074141;28;19911;-75
2021/09/20 11:45:32;;;;;;;2.80;2.50;;;13.10;84.30;;;;;;5072932;28;20119;-75
2021/09/20 11:48:07;;;;;;;4.32;2.95;;;13.10;84.80;;;;;;5074086;28;20059;-74
2021/09/20 11:50:38;;;;;;;3.35;3.03;;;13.10;84.40;;;;;;5074208;28;20107;-74
2021/09/20 11:53:10;;;;;;;3.97;3.10;;;13.10;84.50;;;;;;5072624;28;20031;-75
2021/09/20 11:55:39;;;;;;;4.43;2.83;;;13.20;84.10;;;;;;5074303;28;20124;-75
2021/09/20 11:58:09;;;;;;;4.90;3.15;;;13.20;83.80;;;;;;5072482;28;20550;-75
2021/09/20 12:00:55;;;;;;;3.92;2.70;;;13.20;83.30;;;;;;5072545;28;20017;-74
2021/09/20 12:03:25;;;;;;;3.38;2.60;;;13.20;82.80;;;;;;5073871;28;20028;-76
2021/09/20 12:05:53;;;;;;;5.75;2.80;;;13.30;82.70;;;;;;5073763;28;20453;-75
2021/09/20 12:08:25;;;;;;;2.95;2.33;;;13.20;82.60;;;;;;5072381;28;20032;-76
2021/09/20 12:10:55;;;;;;;3.88;2.50;;;13.20;82.20;;;;;;5072649;28;20028;-75
2021/09/20 12:13:35;;;;;;;2.60;2.40;;;13.30;82.20;;;;;;5073579;28;20158;-75
2021/09/20 12:16:07;;;;;;;3.08;2.42;;;13.30;83.00;;;;;;5072013;28;20670;-74
2021/09/20 12:18:36;;;;;;;2.65;2.42;;;13.30;82.80;;;;;;5073426;28;20025;-75
2021/09/20 12:21:10;;;;;;;2.70;2.15;;;13.40;83.30;;;;;;5072103;28;20020;-74
2021/09/20 12:23:49;;;;;;;4.90;2.85;;;13.40;83.10;;;;;;5072152;28;20077;-73
2021/09/20 12:26:28;;;;;;;2.50;2.30;;;13.40;83.40;;;;;;5071691;28;20028;-73
2021/09/20 12:29:00;;;;;;;4.40;2.28;;;13.40;83.40;;;;;;5073381;28;20035;-75
2021/09/20 12:31:47;;;;;;;3.78;2.50;;;13.40;82.70;;;;;;5071934;28;20054;-74
2021/09/20 12:34:20;;;;;;;3.05;2.70;;;13.40;83.30;;;;;;5072012;28;20469;-75
2021/09/20 12:36:57;;;;;;;2.88;2.58;;;13.30;82.80;;;;;;5071796;28;20043;-74
2021/09/20 12:39:27;;;;;;;4.15;2.50;;;13.30;84.40;;;;;;5071857;28;20031;-74
2021/09/20 12:42:09;;;;;;;4.07;2.95;;;13.20;82.90;;;;;;5073661;28;20027;-75
2021/09/20 12:44:42;;;;;;;3.60;3.25;;;13.20;83.20;;;;;;5073175;28;20060;-74
2021/09/20 12:47:15;;;;;;;3.25;2.90;;;13.20;83.60;;;;;;5073043;28;20020;-74
2021/09/20 12:49:58;;;;;;;3.80;3.42;;;13.20;83.10;;;;;;5072007;28;20078;-74
2021/09/20 12:52:29;;;;;;;3.40;3.10;;;13.30;82.90;;;;;;5072945;28;20101;-75
2021/09/20 12:54:57;;;;;;;3.22;3.03;;;13.20;82.60;;;;;;5071590;28;20021;-74
2021/09/20 12:57:27;;;;;;;5.45;3.58;;;13.20;83.10;;;;;;5072950;28;20021;-75